createdAt,value
2018-04-25T00:00:58.019Z,29.83
2018-04-25T00:03:25.568Z,29.33
2018-04-25T00:05:53.851Z,28.07
2018-04-25T00:08:21.427Z,30.77
2018-04-25T00:10:48.984Z,31.77
2018-04-25T00:13:16.508Z,31.80
2018-04-25T00:15:44.033Z,31.20
2018-04-25T00:18:11.562Z,32.40
2018-04-25T00:20:39.089Z,29.90
2018-04-25T00:23:06.639Z,28.73
2018-04-25T00:25:34.935Z,30.03
2018-04-25T00:28:03.257Z,31.83
2018-04-25T00:30:30.791Z,31.27
2018-04-25T00:32:59.063Z,30.83
2018-04-25T00:35:26.603Z,29.30
2018-04-25T00:37:54.875Z,29.10
2018-04-25T00:40:23.186Z,35.33
2018-04-25T00:42:50.724Z,30.33
2018-04-25T00:45:18.281Z,32.20
2018-04-25T00:47:45.795Z,28.23
2018-04-25T00:50:13.328Z,31.07
2018-04-25T00:52:40.880Z,28.93
2018-04-25T00:55:09.155Z,26.33
2018-04-25T00:57:36.685Z,28.50
2018-04-25T01:00:04.300Z,27.37
2018-04-25T01:02:31.823Z,29.00
2018-04-25T01:04:59.348Z,27.03
2018-04-25T01:07:27.657Z,28.23
2018-04-25T01:09:55.179Z,25.03
2018-04-25T01:12:22.719Z,23.80
2018-04-25T01:14:50.249Z,27.70
2018-04-25T01:17:17.792Z,27.33
2018-04-25T01:19:45.305Z,26.60
2018-04-25T01:22:12.824Z,25.33
2018-04-25T01:24:40.373Z,24.57
2018-04-25T01:27:07.902Z,23.00
2018-04-25T01:29:37.891Z,25.27
2018-04-25T01:32:05.418Z,23.03
2018-04-25T01:34:44.659Z,24.17
2018-04-25T01:37:12.975Z,22.67
2018-04-25T01:39:41.256Z,23.80
2018-04-25T01:45:26.195Z,23.27
2018-04-25T01:50:57.961Z,22.57
2018-04-25T01:53:37.418Z,23.67
2018-04-25T01:56:16.662Z,23.10
2018-04-25T01:58:56.056Z,21.97
2018-04-25T02:01:23.102Z,21.57
2018-04-25T02:04:05.338Z,21.57
2018-04-25T02:06:32.855Z,20.47
2018-04-25T02:09:00.402Z,19.97
2018-04-25T02:11:27.988Z,22.77
2018-04-25T02:13:55.584Z,22.47
2018-04-25T02:16:23.104Z,20.27
2018-04-25T02:18:50.636Z,21.23
2018-04-25T02:21:18.164Z,20.87
2018-04-25T02:23:45.692Z,19.23
2018-04-25T02:26:13.225Z,20.27
2018-04-25T02:28:40.725Z,23.60
2018-04-25T02:31:08.263Z,21.13
2018-04-25T02:33:35.808Z,19.60
2018-04-25T02:36:03.546Z,19.40
2018-04-25T02:38:31.086Z,21.33
2018-04-25T02:40:58.612Z,18.67
2018-04-25T02:43:26.136Z,20.77
2018-04-25T02:45:53.663Z,19.00
2018-04-25T02:48:21.957Z,18.57
2018-04-25T02:50:50.261Z,18.87
2018-04-25T02:53:17.785Z,19.03
2018-04-25T02:55:46.095Z,19.17
2018-04-25T02:58:13.626Z,18.63
2018-04-25T03:00:41.926Z,18.17
2018-04-25T03:03:09.455Z,20.53
2018-04-25T03:05:36.985Z,17.33
2018-04-25T03:08:04.516Z,18.00
2018-04-25T03:10:32.060Z,17.87
2018-04-25T03:12:59.587Z,19.23
2018-04-25T03:15:27.869Z,16.90
2018-04-25T03:17:56.177Z,18.00
2018-04-25T03:20:23.790Z,16.90
2018-04-25T03:22:51.306Z,17.80
2018-04-25T03:25:19.531Z,16.67
2018-04-25T03:27:47.822Z,16.37
2018-04-25T03:30:16.124Z,15.90
2018-04-25T03:32:43.657Z,15.53
2018-04-25T03:35:11.180Z,15.07
2018-04-25T03:37:38.779Z,15.53
2018-04-25T03:40:06.297Z,15.13
2018-04-25T03:42:33.839Z,17.37
2018-04-25T03:45:01.455Z,16.73
2018-04-25T03:47:29.769Z,15.37
2018-04-25T03:49:57.317Z,14.77
2018-04-25T03:52:24.856Z,14.90
2018-04-25T03:54:52.394Z,14.77
2018-04-25T03:57:19.922Z,14.17
2018-04-25T03:59:47.456Z,13.47
2018-04-25T04:02:14.998Z,14.37
2018-04-25T04:04:42.526Z,13.30
2018-04-25T04:07:10.838Z,13.37
2018-04-25T04:09:38.374Z,12.30
2018-04-25T04:12:05.896Z,13.03
2018-04-25T04:14:33.468Z,12.70
2018-04-25T04:17:00.978Z,12.17
2018-04-25T04:19:28.499Z,11.73
2018-04-25T04:21:56.784Z,11.83
2018-04-25T04:24:24.328Z,12.77
2018-04-25T04:26:51.853Z,13.43
2018-04-25T04:29:19.376Z,15.10
2018-04-25T04:31:46.905Z,11.87
2018-04-25T04:34:14.419Z,11.50
2018-04-25T04:36:41.943Z,11.90
2018-04-25T04:39:09.468Z,11.63
2018-04-25T04:41:36.996Z,12.27
2018-04-25T04:44:04.536Z,11.57
2018-04-25T04:46:32.105Z,12.07
2018-04-25T04:49:00.396Z,13.20
2018-04-25T04:51:27.911Z,11.33
2018-04-25T04:53:55.458Z,14.33
2018-04-25T04:56:22.978Z,13.37
2018-04-25T04:58:50.520Z,14.30
2018-04-25T05:01:18.077Z,13.13
2018-04-25T05:03:45.633Z,11.73
2018-04-25T05:06:13.192Z,13.10
2018-04-25T05:08:40.823Z,12.93
2018-04-25T05:11:08.291Z,9.63
2018-04-25T05:13:35.818Z,8.77
2018-04-25T05:16:04.121Z,8.23
2018-04-25T05:18:31.685Z,8.63
2018-04-25T05:20:59.211Z,7.37
2018-04-25T05:23:27.507Z,7.37
2018-04-25T05:25:55.047Z,8.27
2018-04-25T05:28:22.557Z,7.23
2018-04-25T05:30:50.095Z,8.40
2018-04-25T05:33:17.669Z,6.60
2018-04-25T05:35:45.179Z,5.83
2018-04-25T05:38:13.459Z,5.40
2018-04-25T05:40:41.749Z,5.20
2018-04-25T05:43:09.255Z,7.13
2018-04-25T05:45:36.750Z,5.10
2018-04-25T05:48:04.273Z,4.90
2018-04-25T05:50:31.792Z,5.77
2018-04-25T05:52:59.318Z,4.57
2018-04-25T05:55:26.845Z,4.43
2018-04-25T05:57:54.384Z,4.37
2018-04-25T06:00:21.918Z,4.97
2018-04-25T06:02:49.434Z,4.57
2018-04-25T06:05:16.975Z,4.53
2018-04-25T06:07:44.517Z,4.87
2018-04-25T06:10:12.038Z,4.40
2018-04-25T06:12:40.326Z,4.67
2018-04-25T06:15:07.863Z,4.93
2018-04-25T06:17:36.139Z,4.80
2018-04-25T06:20:03.683Z,6.97
2018-04-25T06:22:31.243Z,5.33
2018-04-25T06:24:58.767Z,6.30
2018-04-25T06:27:26.299Z,7.63
2018-04-25T06:29:53.823Z,5.43
2018-04-25T06:32:22.115Z,6.30
2018-04-25T06:34:49.639Z,5.20
2018-04-25T06:37:17.175Z,5.70
2018-04-25T06:39:44.685Z,5.63
2018-04-25T06:42:12.214Z,9.30
2018-04-25T06:44:39.800Z,6.87
2018-04-25T06:47:07.300Z,5.63
2018-04-25T06:49:34.852Z,8.80
2018-04-25T06:52:02.354Z,6.53
2018-04-25T06:54:29.868Z,6.47
2018-04-25T06:56:57.386Z,4.87
2018-04-25T06:59:25.684Z,7.17
2018-04-25T07:01:53.198Z,6.23
2018-04-25T07:04:20.720Z,4.40
2018-04-25T07:06:48.250Z,6.37
2018-04-25T07:09:16.537Z,6.60
2018-04-25T07:11:44.076Z,6.73
2018-04-25T07:14:11.638Z,5.47
2018-04-25T07:16:39.172Z,4.43
2018-04-25T07:19:06.732Z,3.70
2018-04-25T07:21:34.258Z,10.10
2018-04-25T07:24:01.764Z,6.00
2018-04-25T07:26:29.302Z,7.37
2018-04-25T07:28:56.847Z,6.40
2018-04-25T07:31:24.378Z,3.57
2018-04-25T07:33:51.921Z,4.10
2018-04-25T07:36:20.229Z,4.03
2018-04-25T07:38:47.745Z,5.47
2018-04-25T07:41:16.039Z,5.33
2018-04-25T07:43:43.583Z,4.50
2018-04-25T07:46:11.863Z,2.70
2018-04-25T07:48:40.129Z,3.90
2018-04-25T07:51:08.421Z,3.40
2018-04-25T07:53:35.976Z,2.13
2018-04-25T07:56:03.496Z,4.07
2018-04-25T07:58:32.521Z,3.20
2018-04-25T08:01:00.058Z,7.03
2018-04-25T08:03:27.679Z,2.23
2018-04-25T08:05:55.292Z,5.63
2018-04-25T08:08:22.774Z,4.93
2018-04-25T08:22:46.108Z,4.47
2018-04-25T08:25:13.633Z,5.87
2018-04-25T08:27:41.189Z,1.60
2018-04-25T08:30:08.760Z,1.87
2018-04-25T08:32:37.035Z,1.97
2018-04-25T08:35:05.333Z,2.00
2018-04-25T08:37:32.863Z,1.27
2018-04-25T08:40:00.404Z,3.00
2018-04-25T08:42:27.929Z,1.50
2018-04-25T08:44:55.602Z,2.77
2018-04-25T08:47:23.076Z,2.03
2018-04-25T08:49:50.625Z,1.70
2018-04-25T08:52:18.165Z,2.10
2018-04-25T08:54:45.703Z,1.83
2018-04-25T08:57:13.218Z,3.77
2018-04-25T08:59:40.733Z,1.10
2018-04-25T09:02:08.262Z,2.93
2018-04-25T09:04:36.551Z,3.10
2018-04-25T09:07:04.073Z,0.77
2018-04-25T09:09:31.618Z,0.87
2018-04-25T09:11:59.133Z,1.63
2018-04-25T09:14:26.649Z,2.60
2018-04-25T09:16:54.175Z,2.37
2018-04-25T09:19:21.713Z,2.13
2018-04-25T09:21:49.246Z,4.00
2018-04-25T09:24:16.800Z,2.23
2018-04-25T09:26:45.080Z,2.53
2018-04-25T09:29:13.364Z,5.90
2018-04-25T09:31:41.709Z,1.63
2018-04-25T09:34:09.236Z,1.87
2018-04-25T09:36:36.779Z,2.10
2018-04-25T09:39:04.306Z,3.37
2018-04-25T09:41:31.818Z,4.10
2018-04-25T09:43:59.344Z,4.07
2018-04-25T09:46:26.866Z,3.20
2018-04-25T09:48:54.414Z,6.67
2018-04-25T09:51:21.915Z,2.10
2018-04-25T09:53:49.493Z,3.20
2018-04-25T09:56:17.031Z,3.73
2018-04-25T09:58:44.551Z,2.03
2018-04-25T10:01:12.081Z,3.43
2018-04-25T10:03:43.490Z,2.77
2018-04-25T10:06:11.787Z,2.37
2018-04-25T10:08:39.315Z,1.23
2018-04-25T10:11:06.896Z,2.63
2018-04-25T10:13:34.416Z,3.47
2018-04-25T10:16:01.938Z,3.60
2018-04-25T10:18:29.460Z,1.33
2018-04-25T10:20:57.761Z,1.57
2018-04-25T10:23:25.292Z,1.90
2018-04-25T10:25:52.840Z,1.73
2018-04-25T10:28:21.125Z,1.20
2018-04-25T10:30:49.413Z,2.47
2018-04-25T10:33:16.941Z,2.80
2018-04-25T10:35:44.457Z,2.13
2018-04-25T10:38:11.994Z,3.97
2018-04-25T10:40:39.519Z,1.67
2018-04-25T10:43:07.061Z,1.97
2018-04-25T10:45:34.575Z,2.93
2018-04-25T10:48:02.105Z,2.30
2018-04-25T10:50:30.398Z,1.57
2018-04-25T10:52:57.934Z,3.30
2018-04-25T10:55:26.242Z,2.43
2018-04-25T10:57:53.791Z,1.57
2018-04-25T11:00:21.305Z,2.10
2018-04-25T11:02:48.843Z,1.03
2018-04-25T11:05:16.355Z,2.00
2018-04-25T11:07:43.885Z,3.80
2018-04-25T11:10:11.409Z,1.83
2018-04-25T11:12:38.931Z,2.80
2018-04-25T11:15:06.460Z,2.30
2018-04-25T11:17:34.001Z,1.40
2018-04-25T11:20:01.556Z,7.93
2018-04-25T11:22:29.080Z,3.90
2018-04-25T11:24:56.598Z,2.87
2018-04-25T11:27:24.120Z,1.77
2018-04-25T11:29:51.621Z,1.73
2018-04-25T11:32:19.128Z,4.77
2018-04-25T11:34:46.652Z,3.53
2018-04-25T11:37:14.158Z,1.77
2018-04-25T11:39:41.696Z,4.20
2018-04-25T11:42:09.546Z,1.37
2018-04-25T11:44:37.824Z,2.50
2018-04-25T11:47:05.368Z,4.13
2018-04-25T11:49:33.708Z,3.43
2018-04-25T11:52:01.232Z,1.70
2018-04-25T11:54:28.803Z,2.93
2018-04-25T11:56:56.325Z,1.33
2018-04-25T11:59:24.627Z,1.00
2018-04-25T12:01:52.158Z,1.37
2018-04-25T12:04:19.688Z,1.07
2018-04-25T12:06:47.268Z,1.00
2018-04-25T12:09:15.565Z,1.23
2018-04-25T12:11:43.082Z,2.27
2018-04-25T12:14:11.400Z,1.87
2018-04-25T12:16:38.929Z,2.10
2018-04-25T12:19:06.580Z,2.03
2018-04-25T12:21:34.112Z,2.00
2018-04-25T12:24:01.639Z,3.20
2018-04-25T12:26:29.203Z,4.07
2018-04-25T12:28:56.716Z,2.10
2018-04-25T12:31:24.270Z,3.13
2018-04-25T12:33:51.786Z,2.80
2018-04-25T12:36:19.304Z,4.93
2018-04-25T12:38:47.625Z,2.17
2018-04-25T12:41:15.156Z,2.50
2018-04-25T12:43:43.446Z,1.90
2018-04-25T12:46:10.967Z,2.93
2018-04-25T12:48:38.527Z,2.83
2018-04-25T12:51:06.055Z,2.30
2018-04-25T12:53:33.578Z,2.53
2018-04-25T12:56:01.152Z,3.33
2018-04-25T12:58:28.692Z,1.80
2018-04-25T13:00:56.268Z,1.90
2018-04-25T13:03:23.799Z,2.40
2018-04-25T13:05:52.086Z,2.80
2018-04-25T13:08:19.594Z,3.03
2018-04-25T13:10:47.105Z,4.27
2018-04-25T13:13:14.664Z,1.70
2018-04-25T13:15:42.212Z,2.27
2018-04-25T13:18:09.748Z,4.30
2018-04-25T13:20:37.292Z,2.53
2018-04-25T13:23:04.834Z,2.63
2018-04-25T13:25:32.389Z,2.07
2018-04-25T13:27:59.937Z,2.37
2018-04-25T13:30:27.450Z,2.70
2018-04-25T13:32:55.742Z,3.50
2018-04-25T13:35:24.052Z,3.43
2018-04-25T13:37:51.617Z,2.40
2018-04-25T13:40:19.107Z,3.53
2018-04-25T13:42:46.649Z,1.87
2018-04-25T13:45:14.180Z,3.27
2018-04-25T13:47:41.700Z,5.10
2018-04-25T13:50:09.992Z,2.57
2018-04-25T13:52:37.554Z,1.73
2018-04-25T13:55:05.073Z,2.20
2018-04-25T13:57:32.600Z,3.47
2018-04-25T14:00:00.124Z,3.10
2018-04-25T14:02:28.089Z,2.00
2018-04-25T14:04:56.391Z,2.57
2018-04-25T14:07:24.017Z,3.40
2018-04-25T14:09:52.322Z,1.80
2018-04-25T14:12:19.841Z,2.07
2018-04-25T14:14:48.128Z,2.93
2018-04-25T14:17:15.662Z,2.10
2018-04-25T14:19:43.250Z,1.83
2018-04-25T14:22:11.006Z,4.53
2018-04-25T14:24:39.335Z,3.83
2018-04-25T14:27:06.955Z,4.43
2018-04-25T14:29:35.253Z,2.37
2018-04-25T14:32:02.831Z,2.73
2018-04-25T14:34:31.108Z,4.70
2018-04-25T14:36:58.628Z,4.80
2018-04-25T14:39:26.920Z,3.63
2018-04-25T14:41:54.468Z,8.17
2018-04-25T14:44:22.892Z,12.97
2018-04-25T14:46:50.404Z,12.87
2018-04-25T14:49:17.922Z,8.47
2018-04-25T14:51:45.468Z,3.10
2018-04-25T14:54:12.979Z,3.97
2018-04-25T14:56:40.520Z,4.07
2018-04-25T14:59:08.829Z,4.63
2018-04-25T15:01:36.391Z,2.50
2018-04-25T15:04:04.013Z,5.20
2018-04-25T15:06:31.526Z,1.90
2018-04-25T15:08:59.832Z,2.57
2018-04-25T15:11:28.165Z,2.97
2018-04-25T15:13:55.723Z,3.17
2018-04-25T15:16:23.244Z,3.43
2018-04-25T15:18:51.532Z,2.50
2018-04-25T15:21:19.808Z,2.67
2018-04-25T15:23:48.229Z,3.57
2018-04-25T15:26:15.735Z,2.87
2018-04-25T15:28:44.010Z,2.40
2018-04-25T15:31:12.389Z,3.10
2018-04-25T15:33:39.931Z,4.63
2018-04-25T15:36:08.217Z,4.20
2018-04-25T15:38:35.770Z,4.20
2018-04-25T15:41:03.314Z,3.43
2018-04-25T15:43:30.940Z,5.53
2018-04-25T15:45:58.513Z,4.03
2018-04-25T15:48:26.045Z,5.73
2018-04-25T15:50:53.551Z,4.27
2018-04-25T15:53:21.139Z,4.00
2018-04-25T15:55:48.699Z,2.67
2018-04-25T15:58:16.998Z,2.80
2018-04-25T16:00:44.580Z,3.77
2018-04-25T16:03:12.198Z,2.63
2018-04-25T16:05:41.046Z,7.57
2018-04-25T16:08:08.574Z,2.87
2018-04-25T16:10:36.111Z,3.33
2018-04-25T16:13:03.643Z,4.10
2018-04-25T16:15:31.158Z,3.10
2018-04-25T16:17:58.745Z,3.47
2018-04-25T16:20:26.297Z,3.17
2018-04-25T16:22:54.707Z,2.80
2018-04-25T16:25:22.184Z,2.73
2018-04-25T16:27:49.714Z,2.53
2018-04-25T16:30:18.114Z,2.83
2018-04-25T16:32:45.697Z,3.30
2018-04-25T16:35:13.260Z,5.17
2018-04-25T16:37:40.793Z,6.97
2018-04-25T16:40:08.339Z,2.90
2018-04-25T16:42:35.869Z,2.63
2018-04-25T16:45:03.433Z,5.00
2018-04-25T16:47:30.980Z,3.73
2018-04-25T16:49:58.541Z,2.87
2018-04-25T16:52:26.140Z,3.60
2018-04-25T16:54:54.408Z,3.47
2018-04-25T16:57:22.683Z,3.93
2018-04-25T16:59:51.009Z,4.30
2018-04-25T17:02:18.581Z,3.17
2018-04-25T17:04:46.115Z,4.53
2018-04-25T17:07:13.679Z,6.37
2018-04-25T17:09:42.225Z,5.67
2018-04-25T17:12:09.714Z,3.63
2018-04-25T17:14:37.248Z,4.37
2018-04-25T17:17:04.830Z,3.40
2018-04-25T17:19:32.392Z,3.60
2018-04-25T17:21:59.939Z,3.00
2018-04-25T17:24:27.589Z,10.03
2018-04-25T17:26:56.811Z,5.10
2018-04-25T17:29:24.329Z,2.50
2018-04-25T17:31:52.615Z,2.83
2018-04-25T17:34:20.963Z,2.30
2018-04-25T17:36:48.578Z,2.37
2018-04-25T17:39:16.113Z,2.80
2018-04-25T17:41:43.673Z,2.67
2018-04-25T17:44:12.150Z,2.30
2018-04-25T17:46:40.478Z,2.73
2018-04-25T17:49:08.049Z,2.40
2018-04-25T17:51:36.370Z,3.50
2018-04-25T17:54:03.912Z,2.73
2018-04-25T17:56:32.066Z,3.13
2018-04-25T17:58:59.603Z,3.23
2018-04-25T18:01:27.844Z,2.70
2018-04-25T18:03:55.628Z,3.73
2018-04-25T18:06:23.178Z,3.70
2018-04-25T18:08:51.946Z,3.43
2018-04-25T18:11:19.517Z,3.77
2018-04-25T18:13:48.029Z,3.20
2018-04-25T18:16:15.579Z,2.73
2018-04-25T18:18:43.138Z,2.90
2018-04-25T18:21:11.575Z,3.53
2018-04-25T18:23:40.488Z,3.30
2018-04-25T18:26:08.090Z,3.30
2018-04-25T18:28:36.171Z,4.73
2018-04-25T18:31:03.714Z,3.53
2018-04-25T18:33:31.245Z,3.40
2018-04-25T18:35:58.915Z,5.60
2018-04-25T18:38:26.775Z,7.63
2018-04-25T18:40:54.320Z,5.27
2018-04-25T18:43:22.517Z,5.03
2018-04-25T18:45:50.553Z,4.90
2018-04-25T18:48:18.277Z,4.30
2018-04-25T18:50:46.316Z,4.17
2018-04-25T18:53:15.665Z,4.77
2018-04-25T18:55:44.052Z,3.87
2018-04-25T18:58:11.713Z,4.13
2018-04-25T19:00:39.348Z,5.37
2018-04-25T19:03:07.008Z,4.13
2018-04-25T19:05:34.606Z,4.17
2018-04-25T19:08:02.726Z,4.03
2018-04-25T19:10:31.341Z,4.90
2018-04-25T19:13:00.094Z,5.17
2018-04-25T19:15:27.770Z,3.90
2018-04-25T19:17:56.429Z,4.90
2018-04-25T19:20:24.031Z,5.37
2018-04-25T19:22:51.844Z,6.17
2018-04-25T19:25:19.715Z,4.40
2018-04-25T19:27:48.005Z,5.43
2018-04-25T19:30:15.671Z,5.93
2018-04-25T19:32:43.945Z,4.37
2018-04-25T19:35:11.578Z,5.70
2018-04-25T19:37:39.153Z,5.00
2018-04-25T19:40:06.804Z,5.50
2018-04-25T19:42:34.525Z,5.73
2018-04-25T19:45:03.677Z,5.67
2018-04-25T19:47:31.311Z,6.47
2018-04-25T19:49:58.995Z,5.33
2018-04-25T19:52:27.428Z,5.47
2018-04-25T19:54:55.096Z,5.97
2018-04-25T19:57:22.694Z,5.03
2018-04-25T19:59:50.376Z,9.20
2018-04-25T20:02:18.733Z,5.67
2018-04-25T20:04:46.348Z,4.87
2018-04-25T20:07:14.282Z,7.17
2018-04-25T20:09:43.121Z,7.47
2018-04-25T20:12:11.732Z,5.30
2018-04-25T20:14:39.284Z,6.03
2018-04-25T20:17:06.864Z,5.70
2018-04-25T20:19:34.503Z,9.07
2018-04-25T20:22:02.034Z,8.33
2018-04-25T20:24:30.038Z,7.43
2018-04-25T20:26:58.141Z,7.37
2018-04-25T20:29:25.692Z,5.73
2018-04-25T20:31:54.274Z,5.60
2018-04-25T20:34:21.830Z,6.23
2018-04-25T20:36:49.378Z,6.17
2018-04-25T20:39:16.937Z,5.40
2018-04-25T20:41:45.243Z,4.37
2018-04-25T20:44:13.572Z,4.53
2018-04-25T20:46:41.136Z,4.60
2018-04-25T20:49:08.720Z,4.67
2018-04-25T20:51:36.325Z,5.70
2018-04-25T20:54:03.853Z,4.13
2018-04-25T20:56:31.396Z,3.90
2018-04-25T20:58:58.980Z,6.03
2018-04-25T21:01:26.550Z,5.10
2018-04-25T21:03:54.855Z,4.50
2018-04-25T21:06:22.410Z,6.60
2018-04-25T21:08:49.947Z,4.63
2018-04-25T21:11:18.532Z,4.77
2018-04-25T21:13:46.082Z,3.90
2018-04-25T21:16:14.391Z,4.40
2018-04-25T21:18:41.930Z,5.30
2018-04-25T21:21:10.258Z,5.40
2018-04-25T21:23:37.844Z,5.03
2018-04-25T21:26:05.377Z,5.50
2018-04-25T21:28:32.903Z,5.30
2018-04-25T21:31:00.429Z,7.53
2018-04-25T21:33:27.989Z,5.60
2018-04-25T21:35:55.507Z,5.77
2018-04-25T21:38:23.023Z,6.27
2018-04-25T21:40:50.642Z,6.83
2018-04-25T21:43:18.165Z,5.47
2018-04-25T21:45:45.677Z,5.57
2018-04-25T21:48:13.241Z,5.37
2018-04-25T21:50:40.766Z,6.27
2018-04-25T21:53:08.300Z,5.47
2018-04-25T21:55:35.813Z,5.03
2018-04-25T21:58:03.398Z,6.57
2018-04-25T22:00:30.878Z,7.40
2018-04-25T22:02:58.396Z,5.37
2018-04-25T22:05:26.098Z,6.57
2018-04-25T22:07:53.671Z,4.87
2018-04-25T22:10:21.200Z,4.70
2018-04-25T22:12:48.697Z,5.50
2018-04-25T22:15:16.217Z,5.47
2018-04-25T22:17:44.491Z,5.67
2018-04-25T22:20:12.036Z,5.47
2018-04-25T22:22:39.561Z,5.10
2018-04-25T22:25:07.090Z,5.80
2018-04-25T22:27:34.604Z,5.80
2018-04-25T22:30:02.308Z,7.40
2018-04-25T22:32:29.822Z,6.47
2018-04-25T22:34:58.109Z,5.60
2018-04-25T22:37:26.466Z,6.17
2018-04-25T22:39:55.568Z,5.80
2018-04-25T22:42:23.074Z,5.67
2018-04-25T22:44:50.628Z,7.67
2018-04-25T22:47:18.156Z,8.40
2018-04-25T22:49:45.873Z,6.37
2018-04-25T22:52:13.584Z,7.37
2018-04-25T22:54:41.897Z,6.40
2018-04-25T22:57:09.425Z,6.90
2018-04-25T22:59:37.014Z,7.53
2018-04-25T23:02:04.545Z,7.37
2018-04-25T23:04:32.045Z,7.27
2018-04-25T23:06:59.563Z,7.33
2018-04-25T23:09:27.092Z,8.50
2018-04-25T23:11:54.600Z,6.97
2018-04-25T23:14:22.117Z,9.17
2018-04-25T23:16:50.410Z,8.57
2018-04-25T23:19:18.706Z,9.53
2018-04-25T23:21:46.225Z,7.80
2018-04-25T23:24:13.827Z,8.03
2018-04-25T23:26:41.342Z,7.37
2018-04-25T23:29:08.922Z,8.53
2018-04-25T23:31:37.221Z,7.80
2018-04-25T23:34:04.722Z,6.97
2018-04-25T23:36:32.234Z,6.20
2018-04-25T23:38:59.733Z,6.87
2018-04-25T23:41:27.256Z,6.07
2018-04-25T23:43:54.753Z,6.00
2018-04-25T23:46:22.260Z,6.70
2018-04-25T23:48:49.789Z,5.97
2018-04-25T23:51:18.089Z,6.67
2018-04-25T23:53:45.625Z,7.13
2018-04-25T23:56:13.160Z,5.83
2018-04-25T23:58:41.440Z,7.10
